Main page
METAR-TAF:

METAR-TAF

Airports :

Alfonso López Pumarejo Airport

Valledupar, Colombia

latitude: 10-26N, longitude: 073-15W, elevation: 138 m

Current weather observation

The report was made 27 minutes ago, at 13:00 UTC
Wind 11 kt from the East/Northeast
Temperature 29°C
Humidity 70%
Pressure 1012 hPa
Visibility: 8000 m
Few clouds at a height of 1500 ft

METAR: SKVP 051300Z 06011KT 8000 FEW015 29/23 A2987 RMK HZ

Time: 08:27 (13:27 UTC)


TAF: missing

Weather observations and forecasts of more than 4000 airports (METAR and TAF reports).

The available stations are represented by yellow and red dots on the map.

Hover mouse over dot to see the name of the station.

Then click to see weather observations and forecasts.

To change the map : click on the green buttons with a black cross to zoom in, on the green button with a dash to zoom out, or on the green arrows for adjacent maps.


METAR-TAF: